Terminal Aerodrome Forecast
Issued by NWS Knoxville/Tri Cities, TN

Home | Current Version | Previous Version | Text Only | Print | Product List | Glossary On
Versions: 1 2 3 4 5 6 7 8 9 10 11 12 13 14 15 16 17 18 19 20 21 22 23 24 25 26 27 28 29 30 31 32 33 34 35 36 37 38 39
000
FTUS44 KMRX 192320
TAFTYS
TAF
KTYS 192320Z 2000/2024 23013KT P6SM VCTS BKN020CB OVC050
      TEMPO 2000/2002 20012G20KT 3SM -TSRA BR OVC020CB
     FM200200 20009KT P6SM BKN035
     FM200600 21005KT P6SM VCTS BKN020CB OVC035
     FM201300 23012KT P6SM VCSH BKN040=

USA.gov is the U.S. government's official web portal to all federal, state and local government web resources and services.